createdAt,value
2018-08-25T00:04:49.806Z,57.42
2018-08-25T00:09:53.434Z,56.73
2018-08-25T00:14:56.976Z,57.02
2018-08-25T00:20:00.532Z,56.51
2018-08-25T00:25:04.206Z,56.81
2018-08-25T00:35:24.018Z,57.99
2018-08-25T00:40:27.494Z,57.40
2018-08-25T00:45:31.300Z,57.43
2018-08-25T00:50:34.880Z,57.60
2018-08-25T00:55:38.462Z,56.53
2018-08-25T01:00:42.321Z,56.21
2018-08-25T01:05:46.096Z,56.35
2018-08-25T01:10:49.671Z,56.75
2018-08-25T01:15:53.309Z,56.63
2018-08-25T01:20:57.270Z,56.91
2018-08-25T01:26:00.813Z,57.44
2018-08-25T01:31:04.319Z,57.56
2018-08-25T01:36:07.895Z,57.32
2018-08-25T01:41:11.432Z,57.25
2018-08-25T01:46:15.046Z,57.05
2018-08-25T01:51:18.550Z,58.04
2018-08-25T01:56:22.126Z,58.02
2018-08-25T02:01:29.831Z,58.43
2018-08-25T02:06:33.526Z,57.87
2018-08-25T02:11:37.171Z,58.23
2018-08-25T02:16:41.892Z,57.80
2018-08-25T02:21:45.636Z,57.44
2018-08-25T02:26:49.176Z,58.29
2018-08-25T02:31:52.896Z,57.76
2018-08-25T02:36:56.443Z,58.49
2018-08-25T02:42:00.560Z,58.55
2018-08-25T02:47:04.151Z,58.18
2018-08-25T02:52:07.629Z,58.09
2018-08-25T02:57:11.185Z,58.04
2018-08-25T03:02:14.775Z,57.41
2018-08-25T03:07:18.461Z,57.80
2018-08-25T03:12:21.957Z,57.90
2018-08-25T03:17:25.683Z,57.98
2018-08-25T03:22:29.251Z,57.15
2018-08-25T03:27:32.838Z,56.54
2018-08-25T03:32:36.453Z,57.73
2018-08-25T03:37:39.996Z,57.90
2018-08-25T03:42:43.600Z,58.48
2018-08-25T03:47:47.246Z,58.54
2018-08-25T03:52:50.725Z,58.15
2018-08-25T03:57:54.488Z,57.30
2018-08-25T04:02:58.976Z,57.50
2018-08-25T04:08:02.677Z,58.26
2018-08-25T04:13:07.625Z,57.42
2018-08-25T04:18:11.666Z,57.76
2018-08-25T04:23:15.341Z,56.88
2018-08-25T04:28:19.101Z,57.31
2018-08-25T04:33:23.331Z,58.25
2018-08-25T04:38:26.926Z,57.38
2018-08-25T04:43:30.490Z,56.81
2018-08-25T04:48:35.205Z,58.55
2018-08-25T04:53:38.955Z,60.39
2018-08-25T04:58:42.526Z,65.64
2018-08-25T05:03:46.164Z,74.29
2018-08-25T05:08:50.525Z,77.37
2018-08-25T05:13:54.656Z,80.54
2018-08-25T05:18:58.457Z,82.14
2018-08-25T05:24:02.834Z,84.31
2018-08-25T05:29:06.396Z,87.58
2018-08-25T05:34:09.880Z,85.05
2018-08-25T05:39:13.995Z,87.32
2018-08-25T05:44:17.773Z,86.76
2018-08-25T05:49:21.228Z,85.54
2018-08-25T05:54:24.798Z,84.65
2018-08-25T05:59:28.389Z,86.17
2018-08-25T06:04:31.963Z,86.75
2018-08-25T06:09:36.100Z,85.46
2018-08-25T06:14:40.344Z,85.35
2018-08-25T06:19:44.092Z,86.60
2018-08-25T06:24:47.632Z,88.29
2018-08-25T06:29:51.257Z,91.39
2018-08-25T06:34:54.647Z,86.64
2018-08-25T06:39:58.237Z,83.82
2018-08-25T06:45:01.993Z,84.12
2018-08-25T06:50:05.549Z,82.15
2018-08-25T06:55:09.017Z,80.68
2018-08-25T07:00:15.594Z,81.34
2018-08-25T07:05:19.421Z,82.97
2018-08-25T07:10:22.941Z,81.64
2018-08-25T07:15:26.411Z,77.32
2018-08-25T07:20:29.960Z,78.27
2018-08-25T07:25:33.496Z,78.80
2018-08-25T07:30:36.995Z,78.42
2018-08-25T07:35:40.461Z,76.35
2018-08-25T07:40:43.987Z,77.43
2018-08-25T07:45:49.106Z,77.52
2018-08-25T07:50:52.701Z,78.97
2018-08-25T07:55:56.142Z,78.26
2018-08-25T08:00:59.658Z,74.12
2018-08-25T08:06:03.169Z,75.97
2018-08-25T08:11:06.771Z,73.05
2018-08-25T08:16:10.450Z,70.38
2018-08-25T08:21:13.935Z,69.75
2018-08-25T08:26:17.643Z,71.15
2018-08-25T08:31:21.107Z,66.48
2018-08-25T08:36:24.662Z,67.58
2018-08-25T08:41:28.230Z,68.04
2018-08-25T08:46:35.181Z,65.96
2018-08-25T08:51:39.010Z,65.08
2018-08-25T08:56:42.518Z,67.52
2018-08-25T09:01:46.049Z,64.46
2018-08-25T09:06:49.606Z,61.34
2018-08-25T09:11:53.134Z,58.89
2018-08-25T09:16:56.632Z,60.09
2018-08-25T09:22:00.117Z,60.02
2018-08-25T09:27:03.626Z,59.84
2018-08-25T09:32:07.211Z,59.60
2018-08-25T09:37:10.786Z,61.09
2018-08-25T09:42:14.545Z,64.57
2018-08-25T09:47:18.268Z,77.29
2018-08-25T09:52:21.729Z,74.97
2018-08-25T09:57:25.307Z,77.79
2018-08-25T10:02:29.144Z,77.10
2018-08-25T10:07:32.790Z,75.17
2018-08-25T10:12:36.328Z,75.27
2018-08-25T10:17:39.841Z,72.03
2018-08-25T10:22:43.739Z,72.59
2018-08-25T10:27:47.293Z,72.68
2018-08-25T10:32:50.747Z,70.06
2018-08-25T10:37:54.277Z,68.91
2018-08-25T10:42:57.775Z,67.48
2018-08-25T10:48:01.572Z,66.25
2018-08-25T10:53:05.110Z,64.24
2018-08-25T10:58:08.633Z,65.40
2018-08-25T11:03:12.338Z,65.74
2018-08-25T11:08:16.062Z,63.19
2018-08-25T11:13:19.582Z,60.22
2018-08-25T11:18:23.117Z,59.23
2018-08-25T11:23:28.578Z,57.19
2018-08-25T11:28:32.299Z,57.89
2018-08-25T11:33:35.765Z,58.65
2018-08-25T11:38:39.546Z,56.54
2018-08-25T11:43:43.853Z,54.78
2018-08-25T11:48:47.600Z,52.53
2018-08-25T11:53:51.461Z,55.33
2018-08-25T11:58:54.997Z,54.33
2018-08-25T12:03:58.538Z,53.39
2018-08-25T12:09:02.312Z,52.19
2018-08-25T12:14:05.791Z,51.55
2018-08-25T12:19:09.310Z,48.95
2018-08-25T12:24:12.820Z,49.49
2018-08-25T12:29:16.409Z,47.19
2018-08-25T12:34:20.043Z,46.99
2018-08-25T12:39:23.647Z,46.35
2018-08-25T12:44:27.142Z,46.48
2018-08-25T12:49:30.660Z,47.89
2018-08-25T12:54:34.398Z,45.42
2018-08-25T12:59:37.948Z,46.58
2018-08-25T13:04:42.436Z,46.31
2018-08-25T13:09:45.994Z,47.21
2018-08-25T13:14:49.755Z,46.92
2018-08-25T13:19:53.238Z,45.57
2018-08-25T13:24:56.817Z,45.66
2018-08-25T13:30:00.254Z,45.98
2018-08-25T13:35:03.832Z,45.37
2018-08-25T13:40:07.438Z,47.24
2018-08-25T13:45:10.948Z,47.90
2018-08-25T13:50:14.430Z,50.14
2018-08-25T13:55:18.016Z,50.60
2018-08-25T14:00:33.598Z,47.37
2018-08-25T14:05:37.156Z,51.47
2018-08-25T14:10:40.622Z,56.05
2018-08-25T14:15:44.126Z,57.88
2018-08-25T14:20:47.647Z,60.30
2018-08-25T14:25:51.158Z,62.10
2018-08-25T14:30:54.644Z,64.20
2018-08-25T14:35:58.247Z,66.17
2018-08-25T14:41:01.995Z,72.22
2018-08-25T14:46:05.676Z,75.09
2018-08-25T14:51:09.129Z,77.23
2018-08-25T14:56:12.674Z,77.89
2018-08-25T15:01:18.208Z,79.86
2018-08-25T15:06:21.683Z,78.06
2018-08-25T15:11:25.529Z,77.06
2018-08-25T15:16:29.100Z,78.83
2018-08-25T15:21:32.725Z,75.31
2018-08-25T15:26:36.348Z,72.30
2018-08-25T15:31:39.892Z,72.19
2018-08-25T15:36:43.487Z,68.23
2018-08-25T15:41:47.016Z,71.08
2018-08-25T15:46:50.488Z,70.37
2018-08-25T15:51:54.130Z,71.01
2018-08-25T15:56:57.521Z,70.35
2018-08-25T16:02:01.484Z,68.83
2018-08-25T16:07:05.394Z,69.84
2018-08-25T16:12:09.048Z,68.28
2018-08-25T16:17:12.581Z,66.98
2018-08-25T16:22:16.690Z,69.02
2018-08-25T16:27:20.321Z,68.14
2018-08-25T16:32:23.866Z,65.18
2018-08-25T16:37:27.386Z,65.96
2018-08-25T16:42:30.958Z,65.21
2018-08-25T16:47:34.477Z,66.64
2018-08-25T16:52:38.017Z,66.66
2018-08-25T16:57:41.864Z,66.34
2018-08-25T17:02:45.430Z,68.39
2018-08-25T17:07:49.041Z,67.82
2018-08-25T17:12:52.576Z,66.82
2018-08-25T17:17:56.214Z,66.41
2018-08-25T17:22:59.861Z,67.21
2018-08-25T17:28:03.358Z,65.42
2018-08-25T17:33:07.177Z,67.21
2018-08-25T17:38:10.694Z,68.35
2018-08-25T17:43:14.443Z,69.05
2018-08-25T17:48:17.966Z,68.14
2018-08-25T17:53:21.711Z,69.30
2018-08-25T17:58:25.215Z,70.57
2018-08-25T18:03:28.744Z,72.66
2018-08-25T18:08:32.270Z,73.97
2018-08-25T18:13:35.810Z,74.54
2018-08-25T18:18:39.341Z,75.31
2018-08-25T18:23:43.309Z,77.22
2018-08-25T18:28:46.862Z,76.00
2018-08-25T18:33:50.530Z,77.10
2018-08-25T18:38:55.707Z,75.71
2018-08-25T18:43:59.293Z,76.28
2018-08-25T18:49:02.851Z,76.87
2018-08-25T18:54:06.449Z,76.76
2018-08-25T18:59:10.060Z,77.17
2018-08-25T19:04:13.736Z,76.97
2018-08-25T19:09:17.297Z,76.92
2018-08-25T19:14:20.963Z,76.24
2018-08-25T19:19:24.522Z,76.51
2018-08-25T19:24:28.205Z,75.97
2018-08-25T19:29:31.669Z,76.88
2018-08-25T19:34:35.269Z,75.62
2018-08-25T19:39:39.687Z,76.80
2018-08-25T19:44:43.415Z,75.75
2018-08-25T19:49:47.156Z,75.42
2018-08-25T19:54:50.887Z,74.66
2018-08-25T19:59:54.435Z,74.73
2018-08-25T20:04:57.985Z,75.05
2018-08-25T20:10:01.553Z,75.69
2018-08-25T20:15:05.311Z,75.56
2018-08-25T20:20:08.892Z,75.97
2018-08-25T20:25:12.471Z,76.18
2018-08-25T20:30:17.233Z,75.41
2018-08-25T20:35:20.736Z,75.70
2018-08-25T20:40:24.577Z,75.59
2018-08-25T20:45:28.371Z,76.17
2018-08-25T20:50:31.871Z,76.53
2018-08-25T20:55:35.431Z,76.74
2018-08-25T21:00:38.962Z,76.84
2018-08-25T21:05:42.482Z,76.51
2018-08-25T21:10:46.033Z,76.93
2018-08-25T21:15:56.219Z,77.00
2018-08-25T21:20:59.753Z,76.93
2018-08-25T21:26:03.343Z,76.68
2018-08-25T21:31:06.855Z,76.60
2018-08-25T21:36:10.399Z,77.86
2018-08-25T21:41:13.985Z,77.15
2018-08-25T21:46:17.520Z,76.77
2018-08-25T21:51:21.337Z,78.43
2018-08-25T21:56:24.884Z,78.06
2018-08-25T22:01:32.565Z,77.58
2018-08-25T22:06:36.103Z,78.93
2018-08-25T22:11:39.907Z,78.33
2018-08-25T22:16:43.584Z,78.99
2018-08-25T22:21:47.140Z,79.85
2018-08-25T22:26:50.901Z,79.49
2018-08-25T22:31:54.461Z,79.25
2018-08-25T22:36:57.941Z,79.25
2018-08-25T22:42:01.669Z,79.74
2018-08-25T22:47:05.291Z,79.74
2018-08-25T22:52:08.956Z,80.45
2018-08-25T22:57:13.026Z,80.10
2018-08-25T23:02:16.613Z,81.50
2018-08-25T23:07:20.514Z,80.37
2018-08-25T23:12:24.245Z,80.90
2018-08-25T23:17:28.103Z,81.04
2018-08-25T23:22:31.616Z,81.26
2018-08-25T23:27:35.196Z,81.06
2018-08-25T23:32:38.763Z,82.97
2018-08-25T23:37:42.325Z,82.79
2018-08-25T23:42:45.850Z,83.93
2018-08-25T23:47:49.376Z,84.29
2018-08-25T23:52:52.891Z,84.40
2018-08-25T23:57:56.641Z,84.26
